Time;durP1;ratioP1;P1;durP2;ratioP2;P2;SDS_P1;SDS_P2;PMS_P1;PMS_P2;Temp;Humidity;BMP_temperature;BMP_pressure;BME280_temperature;BME280_humidity;BME280_pressure;Samples;Min_cycle;Max_cycle;Signal;HPM_P1;HPM_P2
2022/10/07 00:02:05;;;;;;;5.22;4.72;;;;;;;10.06;72.15;96004.34;5097080;28;20192;-70
2022/10/07 00:04:35;;;;;;;4.68;4.28;;;;;;;10.05;72.25;96001.91;5079197;28;20185;-70
2022/10/07 00:07:02;;;;;;;5.18;4.40;;;;;;;10.04;72.12;96006.59;5097408;28;20212;-70
2022/10/07 00:09:29;;;;;;;6.30;4.53;;;;;;;10.01;72.21;95998.19;5096625;28;20189;-70
2022/10/07 00:11:56;;;;;;;4.78;4.32;;;;;;;10.00;72.09;95999.31;5096419;28;20196;-70
2022/10/07 00:14:23;;;;;;;5.07;4.55;;;;;;;9.96;71.94;95992.84;5096899;28;20216;-70
2022/10/07 00:16:49;;;;;;;4.68;4.28;;;;;;;9.96;72.18;95990.09;5095886;28;20201;-70
2022/10/07 00:19:16;;;;;;;6.18;5.05;;;;;;;9.95;72.32;95997.56;5096686;28;20192;-70
2022/10/07 00:21:44;;;;;;;5.07;4.10;;;;;;;9.90;72.12;95992.19;5095922;28;20192;-70
2022/10/07 00:24:11;;;;;;;5.13;4.47;;;;;;;9.86;72.21;95999.50;5096771;28;20188;-70
2022/10/07 00:26:38;;;;;;;4.00;3.67;;;;;;;9.83;72.04;96000.94;5095662;28;20196;-70
2022/10/07 00:29:07;;;;;;;5.40;4.30;;;;;;;9.83;72.25;95995.44;5096177;28;20239;-70
2022/10/07 00:31:35;;;;;;;4.40;4.00;;;;;;;9.83;72.05;95991.88;5096217;28;20192;-70
2022/10/07 00:34:03;;;;;;;5.72;4.78;;;;;;;9.81;71.98;95991.41;5096550;28;20196;-71
2022/10/07 00:36:31;;;;;;;4.95;4.18;;;;;;;9.81;72.21;95980.38;5096125;28;20236;-71
2022/10/07 00:39:02;;;;;;;4.50;4.10;;;;;;;9.80;72.22;95982.34;5095805;28;20295;-71
2022/10/07 00:41:31;;;;;;;4.75;4.07;;;;;;;9.76;72.44;95980.53;5096281;28;20192;-71
2022/10/07 00:43:58;;;;;;;4.60;4.20;;;;;;;9.76;72.31;95983.28;5095191;28;20703;-71
2022/10/07 00:46:30;;;;;;;4.38;4.05;;;;;;;9.74;72.17;95982.81;5095178;28;20188;-70
2022/10/07 00:48:58;;;;;;;5.07;4.25;;;;;;;9.72;72.09;95976.81;5095355;28;20208;-70
2022/10/07 00:51:25;;;;;;;4.43;4.03;;;;;;;9.68;72.35;95981.38;5095984;28;20219;-70
2022/10/07 00:53:53;;;;;;;4.30;3.90;;;;;;;9.61;72.05;95977.16;5095312;28;20224;-70
2022/10/07 00:56:23;;;;;;;4.55;4.15;;;;;;;9.59;72.49;95973.13;5095962;28;20210;-70
2022/10/07 00:58:50;;;;;;;4.38;3.97;;;;;;;9.59;72.50;95973.13;5095216;28;20196;-69
2022/10/07 01:01:19;;;;;;;4.43;4.03;;;;;;;9.54;72.67;95974.06;5096215;28;20184;-69
2022/10/07 01:03:47;;;;;;;4.45;4.15;;;;;;;9.54;72.62;95974.06;5095147;28;20242;-70
2022/10/07 01:06:14;;;;;;;5.57;4.00;;;;;;;9.50;72.83;95975.84;5095257;28;20192;-70
2022/10/07 01:08:41;;;;;;;4.20;3.90;;;;;;;9.51;72.40;95968.41;5094989;28;20234;-70
2022/10/07 01:11:15;;;;;;;5.63;4.07;;;;;;;9.49;72.49;95974.25;5095990;28;20473;-70
2022/10/07 01:13:48;;;;;;;6.43;4.15;;;;;;;9.49;72.68;95971.50;5094757;28;20199;-70
2022/10/07 01:16:23;;;;;;;4.20;3.80;;;;;;;9.45;72.90;95975.22;5095698;28;20356;-70
2022/10/07 01:18:55;;;;;;;5.25;4.38;;;;;;;9.42;72.66;95973.09;5094736;28;20199;-70
2022/10/07 01:21:30;;;;;;;4.28;3.97;;;;;;;9.39;72.67;95964.34;5095079;28;20184;-69
2022/10/07 01:24:05;;;;;;;4.78;4.38;;;;;;;9.38;72.67;95968.25;5095024;28;20192;-69
2022/10/07 01:26:50;;;;;;;4.70;4.20;;;;;;;9.38;72.83;95973.75;5094293;28;20207;-69
2022/10/07 01:29:20;;;;;;;5.05;4.45;;;;;;;9.37;72.91;95971.34;5095686;28;20200;-69
2022/10/07 01:31:50;;;;;;;4.70;4.30;;;;;;;9.36;72.49;95973.25;5095856;28;20181;-69
2022/10/07 01:34:17;;;;;;;5.28;4.10;;;;;;;9.35;72.62;95968.06;5095645;28;20235;-71
2022/10/07 01:36:50;;;;;;;4.65;4.25;;;;;;;9.34;72.60;95967.28;5095637;28;20301;-71
2022/10/07 01:39:20;;;;;;;4.85;4.45;;;;;;;9.34;72.67;95970.03;5095088;28;20181;-71
2022/10/07 01:41:49;;;;;;;4.60;4.20;;;;;;;9.34;72.55;95966.47;5095406;28;20189;-71
2022/10/07 01:44:16;;;;;;;5.30;4.50;;;;;;;9.30;72.43;95966.31;5095596;28;20229;-71
2022/10/07 01:46:43;;;;;;;5.70;4.72;;;;;;;9.31;72.52;95969.88;5094631;28;20189;-71
2022/10/07 01:49:09;;;;;;;5.00;4.60;;;;;;;9.26;72.44;95961.75;5094847;28;20219;-71
2022/10/07 01:51:39;;;;;;;5.20;4.70;;;;;;;9.23;72.65;95963.22;5095599;28;20188;-71
2022/10/07 01:54:14;;;;;;;5.30;4.70;;;;;;;9.22;72.67;95963.53;5094688;28;20209;-71
2022/10/07 01:57:01;;;;;;;6.70;4.50;;;;;;;9.23;72.44;95965.16;5095557;28;20191;-70
2022/10/07 01:59:45;;;;;;;5.35;4.95;;;;;;;9.20;72.65;95965.81;5094557;28;20196;-70
2022/10/07 02:02:19;;;;;;;6.20;5.18;;;;;;;9.11;72.70;95969.38;5099126;28;20247;-70
2022/10/07 02:04:52;;;;;;;5.63;5.10;;;;;;;9.11;73.00;95963.88;5099072;28;20271;-70
2022/10/07 02:07:25;;;;;;;7.85;5.35;;;;;;;9.09;73.01;95962.56;5099369;28;20199;-70
2022/10/07 02:09:58;;;;;;;6.30;5.15;;;;;;;9.07;72.79;95960.09;5098573;28;20212;-70
2022/10/07 02:12:32;;;;;;;6.28;5.05;;;;;;;9.10;73.04;95955.91;5099338;28;20181;-70
2022/10/07 02:15:04;;;;;;;5.85;4.50;;;;;;;9.09;73.66;95962.56;5098252;28;20203;-70
2022/10/07 02:17:32;;;;;;;5.30;4.80;;;;;;;9.12;73.79;95961.91;5098685;28;20520;-70
2022/10/07 02:20:00;;;;;;;5.43;4.95;;;;;;;9.17;73.67;95961.75;5099297;28;20204;-70
2022/10/07 02:22:28;;;;;;;5.60;5.10;;;;;;;9.20;73.67;95966.63;5099051;28;20192;-70
2022/10/07 02:24:57;;;;;;;5.88;5.38;;;;;;;9.15;73.45;95973.09;5098949;28;20191;-70
2022/10/07 02:27:29;;;;;;;7.10;5.40;;;;;;;9.14;73.11;95973.41;5098084;28;20192;-70
2022/10/07 02:29:59;;;;;;;6.78;5.60;;;;;;;9.09;73.01;95971.63;5098840;28;20204;-70
2022/10/07 02:32:27;;;;;;;7.38;5.18;;;;;;;9.06;73.04;95976.94;5098187;28;20196;-70
2022/10/07 02:34:57;;;;;;;7.53;5.40;;;;;;;9.03;73.15;95980.34;5097876;28;20309;-71
2022/10/07 02:37:27;;;;;;;8.80;5.57;;;;;;;9.00;73.14;95984.53;5097898;28;20232;-71
2022/10/07 02:39:54;;;;;;;9.23;6.20;;;;;;;8.97;72.84;95979.69;5098391;28;20193;-71
2022/10/07 02:42:25;;;;;;;8.38;6.13;;;;;;;8.91;73.04;95981.78;5080700;28;20204;-71
2022/10/07 02:44:56;;;;;;;6.50;5.90;;;;;;;8.91;73.06;95981.78;5097716;28;20271;-71
2022/10/07 02:47:28;;;;;;;6.47;5.57;;;;;;;8.88;73.02;95982.41;5097329;28;20199;-71
2022/10/07 02:49:59;;;;;;;5.88;5.28;;;;;;;8.88;73.16;95976.09;5098173;28;20235;-70
2022/10/07 02:52:30;;;;;;;6.50;5.88;;;;;;;8.86;73.18;95979.19;5098055;28;20199;-70
2022/10/07 02:54:59;;;;;;;8.30;6.25;;;;;;;8.84;73.01;95981.44;5097398;28;20208;-70
2022/10/07 02:57:27;;;;;;;7.70;6.13;;;;;;;8.86;73.19;95981.09;5098302;28;20552;-70
2022/10/07 02:59:56;;;;;;;5.95;5.45;;;;;;;8.84;73.09;95981.44;5098352;28;20192;-71
2022/10/07 03:02:26;;;;;;;6.13;5.50;;;;;;;8.85;73.39;95985.00;5097582;28;20521;-70
2022/10/07 03:04:53;;;;;;;6.97;5.10;;;;;;;8.84;73.46;95984.19;5096995;28;20640;-70
2022/10/07 03:07:20;;;;;;;9.77;5.15;;;;;;;8.86;73.64;95987.44;5097893;28;20609;-70
2022/10/07 03:09:47;;;;;;;6.53;5.57;;;;;;;8.87;73.71;95983.56;5097235;28;20254;-70
2022/10/07 03:12:14;;;;;;;8.23;5.47;;;;;;;8.90;73.85;95982.09;5097181;28;20186;-70
2022/10/07 03:14:41;;;;;;;6.82;6.22;;;;;;;8.90;73.85;95987.59;5097988;28;20189;-70
2022/10/07 03:17:09;;;;;;;6.78;5.60;;;;;;;8.89;73.99;95984.03;5098069;28;20199;-70
2022/10/07 03:19:36;;;;;;;6.60;5.95;;;;;;;8.88;73.75;95989.84;5098097;28;20208;-70
2022/10/07 03:22:03;;;;;;;6.93;5.60;;;;;;;8.85;73.63;95985.00;5097262;28;20200;-71
2022/10/07 03:24:30;;;;;;;6.65;5.57;;;;;;;8.84;73.64;95986.94;5096814;28;20200;-70
2022/10/07 03:26:57;;;;;;;12.02;6.10;;;;;;;8.81;73.76;95984.00;5097409;28;20195;-69
2022/10/07 03:29:24;;;;;;;8.52;5.88;;;;;;;8.78;73.35;95977.19;5097285;28;20219;-69
2022/10/07 03:31:54;;;;;;;7.80;6.28;;;;;;;8.74;73.39;95967.16;5097581;28;20216;-68
2022/10/07 03:34:22;;;;;;;10.10;6.28;;;;;;;8.73;73.66;95973.81;5097959;28;20267;-70
2022/10/07 03:36:49;;;;;;;7.07;6.00;;;;;;;8.70;73.64;95978.00;5096532;28;20268;-69
2022/10/07 03:39:15;;;;;;;6.22;5.60;;;;;;;8.67;73.23;95976.69;5096964;28;20214;-69
2022/10/07 03:41:42;;;;;;;6.10;5.50;;;;;;;8.64;73.53;95969.09;5097252;28;20507;-69
2022/10/07 03:44:09;;;;;;;5.97;5.43;;;;;;;8.66;73.62;95980.56;5096846;28;20203;-69
2022/10/07 03:46:36;;;;;;;10.52;6.10;;;;;;;8.64;73.55;95974.59;5096400;28;20642;-69
2022/10/07 03:49:03;;;;;;;7.82;5.80;;;;;;;8.67;73.88;95982.19;5097303;28;20219;-69
2022/10/07 03:51:31;;;;;;;8.88;6.25;;;;;;;8.68;74.05;95980.25;5096665;28;20223;-69
2022/10/07 03:53:59;;;;;;;6.70;5.85;;;;;;;8.61;74.03;95972.47;5097242;28;20188;-69
2022/10/07 03:56:26;;;;;;;6.95;5.85;;;;;;;8.60;73.86;95973.56;5097306;28;20191;-69
2022/10/07 03:58:52;;;;;;;7.13;6.35;;;;;;;8.63;74.24;95967.44;5097327;28;20191;-69
2022/10/07 04:01:19;;;;;;;9.13;6.68;;;;;;;8.57;73.74;95977.00;5097370;28;20172;-69
2022/10/07 04:03:46;;;;;;;11.38;6.45;;;;;;;8.53;73.64;95975.97;5096246;28;20211;-69
2022/10/07 04:06:13;;;;;;;10.00;6.90;;;;;;;8.54;73.68;95979.56;5096848;28;20180;-69
2022/10/07 04:08:42;;;;;;;10.98;6.88;;;;;;;8.54;73.78;95977.63;5095980;28;20188;-69
2022/10/07 04:11:09;;;;;;;9.48;6.80;;;;;;;8.54;73.62;95979.56;5097644;28;20242;-69
2022/10/07 04:13:38;;;;;;;12.27;7.00;;;;;;;8.52;73.71;95981.81;5096263;28;20184;-69
2022/10/07 04:16:06;;;;;;;7.15;6.13;;;;;;;8.46;73.86;95981.16;5095702;28;20203;-69
2022/10/07 04:18:33;;;;;;;9.05;6.60;;;;;;;8.48;74.37;95981.63;5096809;28;20662;-69
2022/10/07 04:21:00;;;;;;;8.52;6.68;;;;;;;8.51;74.10;95983.75;5097160;28;20642;-69
2022/10/07 04:23:27;;;;;;;12.30;6.93;;;;;;;8.50;74.41;95982.13;5096862;28;20185;-69
2022/10/07 04:25:55;;;;;;;8.10;6.85;;;;;;;8.54;74.80;95974.88;5095980;28;20188;-70
2022/10/07 04:28:24;;;;;;;12.52;8.32;;;;;;;8.53;74.75;95983.41;5096655;28;20596;-69
2022/10/07 04:30:52;;;;;;;8.63;6.75;;;;;;;8.53;74.62;95981.47;5096650;28;20215;-69
2022/10/07 04:33:20;;;;;;;10.82;7.38;;;;;;;8.54;74.54;95974.06;5096288;28;20611;-69
2022/10/07 04:35:49;;;;;;;13.05;8.50;;;;;;;8.52;74.63;95976.31;5096328;28;20601;-69
2022/10/07 04:38:16;;;;;;;10.30;7.28;;;;;;;8.51;74.43;95978.25;5096452;28;20243;-69
2022/10/07 04:40:45;;;;;;;13.63;8.57;;;;;;;8.51;74.48;95974.69;5095609;28;20197;-69
2022/10/07 04:43:18;;;;;;;13.63;8.63;;;;;;;8.43;74.17;95973.53;5096590;28;20242;-69
2022/10/07 04:45:46;;;;;;;16.00;9.57;;;;;;;8.41;74.46;95979.34;5096409;28;20207;-69
2022/10/07 04:48:12;;;;;;;18.58;9.65;;;;;;;8.42;74.68;95975.47;5095418;28;20193;-69
2022/10/07 04:50:39;;;;;;;13.88;10.23;;;;;;;8.40;74.30;95972.22;5095265;28;20204;-69
2022/10/07 04:53:06;;;;;;;16.88;11.80;;;;;;;8.40;74.72;95974.16;5095868;28;20200;-69
2022/10/07 04:55:36;;;;;;;16.27;10.63;;;;;;;8.39;74.54;95975.31;5096281;28;20293;-70
2022/10/07 04:58:03;;;;;;;13.82;9.30;;;;;;;8.43;74.79;95976.28;5094950;28;20236;-70
2022/10/07 05:00:31;;;;;;;15.30;9.85;;;;;;;8.46;74.33;95974.81;5095088;28;20265;-69
2022/10/07 05:02:58;;;;;;;14.27;11.07;;;;;;;8.52;74.92;95982.63;5096048;28;20185;-69
2022/10/07 05:05:25;;;;;;;17.27;11.27;;;;;;;8.54;74.83;95988.63;5095714;28;20189;-69
2022/10/07 05:07:52;;;;;;;15.93;11.43;;;;;;;8.57;74.54;95981.66;5096061;28;20235;-69
2022/10/07 05:10:19;;;;;;;13.10;9.70;;;;;;;8.61;74.63;95985.41;5094992;28;20258;-69
2022/10/07 05:12:46;;;;;;;18.75;10.15;;;;;;;8.62;74.59;95985.09;5095758;28;20172;-69
2022/10/07 05:15:13;;;;;;;16.00;10.60;;;;;;;8.61;74.72;95997.22;5094977;28;20185;-69
2022/10/07 05:17:41;;;;;;;16.88;9.75;;;;;;;8.62;74.90;95998.84;5095111;28;20250;-69
2022/10/07 05:20:09;;;;;;;16.98;10.05;;;;;;;8.65;74.92;96000.16;5094813;28;20200;-69
2022/10/07 05:22:35;;;;;;;13.10;9.18;;;;;;;8.71;75.25;96004.34;5094797;28;20204;-70
2022/10/07 05:25:02;;;;;;;14.48;10.88;;;;;;;8.74;75.32;96003.72;5095699;28;20192;-70
2022/10/07 05:27:29;;;;;;;18.75;11.30;;;;;;;8.79;75.50;96005.53;5095055;28;20204;-69
2022/10/07 05:29:56;;;;;;;14.82;10.75;;;;;;;8.86;75.74;96003.94;5095600;28;20307;-69
2022/10/07 05:32:23;;;;;;;16.88;10.35;;;;;;;8.92;75.57;95999.91;5095258;28;20520;-69
2022/10/07 05:34:51;;;;;;;13.45;9.82;;;;;;;8.98;75.84;96006.06;5094977;28;20200;-69
2022/10/07 05:37:18;;;;;;;15.43;10.02;;;;;;;9.02;75.90;96007.06;5094595;28;20326;-70
2022/10/07 05:39:45;;;;;;;14.10;10.35;;;;;;;9.07;75.80;96011.59;5095517;28;20180;-69
2022/10/07 05:42:12;;;;;;;16.65;11.05;;;;;;;9.11;76.07;96018.91;5094676;28;20216;-70
2022/10/07 05:44:39;;;;;;;18.52;11.80;;;;;;;9.20;76.17;96016.16;5094458;28;20246;-69
2022/10/07 05:47:06;;;;;;;13.27;9.88;;;;;;;9.28;75.86;96003.53;5094747;28;20196;-69
2022/10/07 05:49:34;;;;;;;14.93;10.55;;;;;;;9.37;75.78;96007.94;5095203;28;20204;-69
2022/10/07 05:52:03;;;;;;;13.90;10.43;;;;;;;9.47;75.62;96004.03;5095290;28;20185;-70
2022/10/07 05:54:31;;;;;;;15.57;9.43;;;;;;;9.54;75.71;96017.31;5095258;28;20203;-69
2022/10/07 05:56:58;;;;;;;13.95;9.70;;;;;;;9.58;75.79;96013.59;5095497;28;20185;-69
2022/10/07 05:59:25;;;;;;;19.27;10.38;;;;;;;9.68;75.57;96017.97;5094963;28;20176;-69
2022/10/07 06:01:58;;;;;;;11.13;9.05;;;;;;;9.79;75.02;96024.78;5095148;28;20514;-69
2022/10/07 06:04:25;;;;;;;12.02;9.18;;;;;;;9.86;74.91;96022.34;5095206;28;20246;-69
2022/10/07 06:06:52;;;;;;;15.48;9.32;;;;;;;9.92;74.86;96014.75;5095236;28;20198;-69
2022/10/07 06:14:49;;;;;;;16.48;9.25;;;;;;;10.15;74.45;96023.63;5094907;28;20173;-69
2022/10/07 06:17:16;;;;;;;10.43;8.25;;;;;;;10.24;74.12;96010.63;5095186;28;20189;-69
2022/10/07 06:19:43;;;;;;;9.95;7.82;;;;;;;10.35;74.03;96014.69;5094111;28;20555;-69
2022/10/07 06:22:10;;;;;;;9.85;8.32;;;;;;;10.43;73.76;96009.50;5094979;28;20184;-69
2022/10/07 06:24:38;;;;;;;8.98;7.28;;;;;;;10.50;73.58;96016.13;5094196;28;20299;-69
2022/10/07 06:27:06;;;;;;;8.43;7.15;;;;;;;10.62;73.34;96015.41;5094632;28;20200;-69
2022/10/07 06:29:33;;;;;;;8.35;6.68;;;;;;;10.72;73.18;96017.81;5094078;28;20220;-69
2022/10/07 06:31:59;;;;;;;9.68;6.13;;;;;;;10.81;73.13;96007.53;5095057;28;20211;-69
2022/10/07 06:34:28;;;;;;;6.53;5.30;;;;;;;10.89;72.88;96022.44;5094637;28;20215;-69
2022/10/07 06:36:55;;;;;;;7.85;5.13;;;;;;;10.97;72.70;96021.59;5094622;28;20290;-69
2022/10/07 06:39:22;;;;;;;5.28;4.78;;;;;;;11.05;72.36;96017.19;5094951;28;20185;-69
2022/10/07 06:41:53;;;;;;;5.50;5.00;;;;;;;11.13;72.55;96019.09;5094707;28;20193;-69
2022/10/07 06:44:20;;;;;;;4.90;4.50;;;;;;;11.20;72.63;96024.09;5094901;28;20185;-69
2022/10/07 06:46:46;;;;;;;5.15;4.65;;;;;;;11.29;73.34;96027.59;5093855;28;20196;-69
2022/10/07 06:49:13;;;;;;;7.20;4.93;;;;;;;11.38;73.09;96030.31;5098651;28;20187;-69
2022/10/07 06:51:40;;;;;;;5.55;4.85;;;;;;;11.47;72.75;96028.28;5097698;28;20208;-69
2022/10/07 06:54:07;;;;;;;7.05;5.38;;;;;;;11.54;72.49;96036.84;5097714;28;20200;-69
2022/10/07 06:56:34;;;;;;;6.45;5.40;;;;;;;11.63;72.47;96031.28;5098357;28;20185;-68
2022/10/07 06:59:02;;;;;;;5.72;4.97;;;;;;;11.72;72.10;96024.53;5097490;28;20188;-68
2022/10/07 07:01:29;;;;;;;6.93;5.88;;;;;;;11.81;71.58;96027.25;5098096;28;20246;-68
2022/10/07 07:03:56;;;;;;;7.55;5.70;;;;;;;11.97;70.35;96030.22;5098336;28;20180;-68
2022/10/07 07:06:23;;;;;;;6.45;5.82;;;;;;;12.10;69.50;96026.38;5098368;28;20257;-68
2022/10/07 07:08:50;;;;;;;7.15;5.97;;;;;;;12.22;69.13;96026.41;5097263;28;20219;-68
2022/10/07 07:11:36;;;;;;;8.57;6.90;;;;;;;12.35;69.30;96032.81;5097923;28;20636;-68
2022/10/07 07:14:05;;;;;;;9.85;7.68;;;;;;;12.45;68.67;96026.00;5097271;28;20211;-68
2022/10/07 07:16:32;;;;;;;10.52;8.07;;;;;;;12.55;68.91;96030.31;5097220;28;20192;-68
2022/10/07 07:19:01;;;;;;;11.38;7.88;;;;;;;12.68;67.71;96023.66;5097194;28;20211;-68
2022/10/07 07:21:29;;;;;;;10.48;7.97;;;;;;;12.78;67.68;96031.50;5098020;28;20195;-68
2022/10/07 07:23:56;;;;;;;13.65;8.65;;;;;;;12.88;67.79;96019.19;5098001;28;20192;-68
2022/10/07 07:26:23;;;;;;;15.88;8.68;;;;;;;12.96;68.36;96015.50;5097071;28;20203;-69
2022/10/07 07:28:53;;;;;;;10.30;7.97;;;;;;;13.06;67.35;96012.28;5096650;28;20295;-69
2022/10/07 07:31:21;;;;;;;11.60;7.93;;;;;;;13.17;66.62;96021.72;5097699;28;20219;-68
2022/10/07 07:33:51;;;;;;;8.30;7.22;;;;;;;13.27;64.63;96014.16;5096764;28;20196;-68
2022/10/07 07:36:20;;;;;;;8.55;6.95;;;;;;;13.33;63.71;96012.78;5097694;28;20272;-68
2022/10/07 07:38:51;;;;;;;9.20;7.63;;;;;;;13.39;63.31;96006.63;5097272;28;20561;-68
2022/10/07 07:41:18;;;;;;;9.70;8.70;;;;;;;13.50;63.80;96012.50;5096914;28;20242;-68
2022/10/07 07:43:49;;;;;;;10.10;8.02;;;;;;;13.63;64.12;96016.88;5097312;28;20204;-69
2022/10/07 07:46:16;;;;;;;8.45;7.10;;;;;;;13.76;64.12;96005.75;5097330;28;20480;-68
2022/10/07 07:48:45;;;;;;;9.07;7.25;;;;;;;13.88;63.29;96006.53;5096453;28;20189;-68
2022/10/07 07:51:12;;;;;;;12.80;7.97;;;;;;;13.98;62.72;96013.56;5097119;28;20216;-68
2022/10/07 07:53:39;;;;;;;10.93;7.65;;;;;;;14.07;62.38;96005.09;5096903;28;20192;-68
2022/10/07 07:56:07;;;;;;;8.02;7.22;;;;;;;14.16;61.65;96012.09;5096482;28;20201;-68
2022/10/07 07:58:33;;;;;;;7.75;6.53;;;;;;;14.32;60.45;96008.56;5096808;28;20202;-69
2022/10/07 08:01:02;;;;;;;5.60;4.55;;;;;;;14.41;59.54;96001.66;5097316;28;20250;-68
2022/10/07 08:03:28;;;;;;;6.40;5.80;;;;;;;14.52;59.06;96002.00;5097158;28;20597;-69
2022/10/07 08:06:00;;;;;;;10.98;6.65;;;;;;;14.61;58.40;95997.09;5097180;28;20527;-69
2022/10/07 08:08:27;;;;;;;7.57;5.30;;;;;;;14.71;58.05;95992.19;5096690;28;20534;-69
2022/10/07 08:10:54;;;;;;;4.40;4.00;;;;;;;14.77;54.62;95986.00;5097067;28;20214;-70
2022/10/07 08:13:20;;;;;;;5.22;3.78;;;;;;;14.85;53.85;95990.59;5096927;28;20188;-69
2022/10/07 08:15:47;;;;;;;6.53;3.80;;;;;;;14.89;54.27;95985.13;5095990;28;20207;-68
2022/10/07 08:18:16;;;;;;;7.13;4.00;;;;;;;14.97;54.06;95986.09;5095991;28;20214;-69
2022/10/07 08:20:43;;;;;;;7.18;4.43;;;;;;;15.06;55.23;95983.94;5095976;28;20295;-69
2022/10/07 08:23:11;;;;;;;7.13;5.15;;;;;;;15.18;55.55;95983.84;5096838;28;20200;-69
2022/10/07 08:25:38;;;;;;;5.90;4.90;;;;;;;15.25;54.13;95975.69;5095799;28;20192;-68
2022/10/07 08:28:04;;;;;;;4.80;4.20;;;;;;;15.37;53.71;95972.78;5096204;28;20220;-68
2022/10/07 08:30:32;;;;;;;6.03;4.45;;;;;;;15.48;53.43;95975.00;5096529;28;20232;-68
2022/10/07 08:32:59;;;;;;;5.57;4.68;;;;;;;15.55;53.60;95975.16;5096478;28;20188;-68
2022/10/07 08:35:25;;;;;;;5.45;4.18;;;;;;;15.64;53.98;95971.00;5095915;28;20208;-69
2022/10/07 08:37:52;;;;;;;7.72;4.78;;;;;;;15.78;52.59;95961.38;5095440;28;20235;-69
2022/10/07 08:40:20;;;;;;;5.18;4.20;;;;;;;15.89;52.33;95957.66;5096422;28;20187;-69
2022/10/07 08:42:47;;;;;;;7.07;3.70;;;;;;;16.01;52.04;95961.44;5095983;28;20184;-69
2022/10/07 08:45:19;;;;;;;5.78;4.40;;;;;;;16.06;52.74;95958.41;5096618;28;20193;-69
2022/10/07 08:47:46;;;;;;;4.38;3.95;;;;;;;16.20;51.93;95955.91;5095587;28;20200;-69
2022/10/07 08:50:15;;;;;;;4.55;4.00;;;;;;;16.29;50.62;95958.44;5096468;28;20266;-74
2022/10/07 08:52:47;;;;;;;4.65;3.70;;;;;;;16.30;49.81;95946.13;5096312;28;20196;-73
2022/10/07 08:55:26;;;;;;;4.88;3.60;;;;;;;16.38;50.77;95945.09;5095962;28;20601;-71
2022/10/07 08:58:18;;;;;;;4.88;3.50;;;;;;;16.54;49.70;95947.78;5095439;28;20218;-71
2022/10/07 09:00:59;;;;;;;4.50;4.10;;;;;;;16.58;50.68;95938.28;5095147;28;20188;-71
2022/10/07 09:03:36;;;;;;;4.70;3.72;;;;;;;16.70;52.16;95939.28;5094782;28;20188;-71
2022/10/07 09:06:05;;;;;;;6.18;4.07;;;;;;;16.80;49.94;95933.94;5095427;28;20184;-72
2022/10/07 09:08:35;;;;;;;5.72;3.90;;;;;;;16.87;50.74;95932.44;5096055;28;20196;-72
2022/10/07 09:11:14;;;;;;;4.97;3.95;;;;;;;17.02;50.54;95928.72;5094916;28;20535;-72
2022/10/07 09:13:45;;;;;;;4.53;3.00;;;;;;;17.15;49.70;95929.31;5096079;28;20271;-72
2022/10/07 09:16:15;;;;;;;3.63;3.15;;;;;;;17.19;48.53;95927.41;5095704;28;20192;-72
2022/10/07 09:18:45;;;;;;;3.47;3.15;;;;;;;17.27;47.63;95918.75;5094625;28;20525;-71
2022/10/07 09:21:15;;;;;;;3.50;2.70;;;;;;;17.30;48.81;95917.22;5094865;28;20601;-71
2022/10/07 09:23:42;;;;;;;4.80;3.03;;;;;;;17.39;49.43;95911.34;5095518;28;20214;-72
2022/10/07 09:26:11;;;;;;;5.38;3.13;;;;;;;17.46;47.80;95911.44;5095733;28;20184;-72
2022/10/07 09:28:40;;;;;;;3.80;3.50;;;;;;;17.52;47.81;95912.75;5094645;28;20197;-72
2022/10/07 09:31:07;;;;;;;3.95;2.65;;;;;;;17.62;48.31;95914.06;5094625;28;20212;-71
2022/10/07 09:33:37;;;;;;;3.70;3.38;;;;;;;17.73;48.06;95907.44;5095704;28;20230;-72
2022/10/07 09:36:06;;;;;;;8.93;4.97;;;;;;;17.84;48.65;95904.81;5094112;28;20188;-71
2022/10/07 09:38:35;;;;;;;6.88;4.43;;;;;;;17.96;47.74;95903.75;5094448;28;20204;-72
2022/10/07 09:41:15;;;;;;;5.85;3.30;;;;;;;17.97;47.03;95906.19;5095513;28;20204;-72
2022/10/07 09:43:52;;;;;;;4.15;2.83;;;;;;;18.02;46.82;95910.63;5095430;28;20191;-71
2022/10/07 09:46:27;;;;;;;3.70;2.92;;;;;;;18.06;46.23;95902.28;5095700;28;20200;-71
2022/10/07 09:49:03;;;;;;;4.00;3.28;;;;;;;18.11;48.12;95899.94;5094532;28;20207;-71
2022/10/07 09:51:31;;;;;;;3.95;3.55;;;;;;;18.24;46.97;95892.13;5094402;28;20207;-72
2022/10/07 09:54:01;;;;;;;3.65;3.30;;;;;;;18.33;46.48;95900.19;5095309;28;20232;-72
2022/10/07 09:56:40;;;;;;;3.40;3.00;;;;;;;18.42;46.21;95881.13;5094541;28;20287;-72
2022/10/07 09:59:21;;;;;;;5.07;3.30;;;;;;;18.43;46.86;95880.75;5095515;28;20184;-72
2022/10/07 10:01:52;;;;;;;3.60;3.30;;;;;;;18.58;47.38;95881.69;5094425;28;20230;-71
2022/10/07 10:04:21;;;;;;;3.72;3.17;;;;;;;18.64;46.17;95866.19;5095359;28;20188;-71
2022/10/07 10:06:49;;;;;;;3.90;2.83;;;;;;;18.71;44.73;95871.84;5095217;28;20184;-73
2022/10/07 10:09:20;;;;;;;4.05;2.78;;;;;;;18.73;44.34;95860.28;5094307;28;20263;-72
2022/10/07 10:12:03;;;;;;;4.47;2.92;;;;;;;18.82;46.27;95860.78;5094464;28;20212;-72
2022/10/07 10:14:41;;;;;;;4.03;3.35;;;;;;;18.91;45.47;95860.41;5094285;28;20250;-72
2022/10/07 10:17:21;;;;;;;3.90;3.30;;;;;;;19.01;45.70;95851.31;5095243;28;20215;-73
2022/10/07 10:19:47;;;;;;;3.80;2.90;;;;;;;19.01;44.35;95854.13;5095540;28;20215;-72
2022/10/07 10:22:24;;;;;;;4.85;3.55;;;;;;;19.09;45.81;95852.16;5097910;28;20191;-73
2022/10/07 10:27:47;;;;;;;3.47;3.00;;;;;;;19.12;44.48;95852.19;5098368;28;20219;-72
2022/10/07 10:30:18;;;;;;;5.30;4.80;;;;;;;19.20;44.93;95855.81;5098352;28;20192;-72
2022/10/07 10:33:08;;;;;;;3.40;3.10;;;;;;;19.18;43.02;95847.84;5098597;28;20212;-72
2022/10/07 10:35:39;;;;;;;4.95;3.53;;;;;;;19.23;45.88;95841.06;5098172;28;20274;-72
2022/10/07 10:38:18;;;;;;;3.90;2.60;;;;;;;19.30;44.36;95840.31;5099060;28;20242;-73
2022/10/07 10:40:50;;;;;;;3.60;3.08;;;;;;;19.35;44.07;95829.53;5097957;28;20211;-73
2022/10/07 10:43:26;;;;;;;2.90;2.60;;;;;;;19.37;43.45;95829.16;5098755;28;20192;-73
2022/10/07 10:46:04;;;;;;;4.10;2.88;;;;;;;19.45;44.83;95822.41;5098741;28;20226;-72
2022/10/07 10:48:37;;;;;;;3.55;2.92;;;;;;;19.42;42.59;95821.19;5097888;28;20208;-72
2022/10/07 10:51:13;;;;;;;3.28;2.95;;;;;;;19.49;43.41;95815.63;5098740;28;20204;-73
2022/10/07 10:53:50;;;;;;;2.88;2.38;;;;;;;19.58;42.77;95811.69;5098695;28;20195;-73
2022/10/07 10:56:26;;;;;;;4.13;3.72;;;;;;;19.64;43.23;95812.94;5099068;28;20529;-72
2022/10/07 10:59:02;;;;;;;3.00;2.67;;;;;;;19.67;41.37;95804.53;5098115;28;20188;-72
2022/10/07 11:01:33;;;;;;;3.05;2.40;;;;;;;19.68;42.14;95808.97;5098469;28;20184;-72
2022/10/07 11:04:20;;;;;;;2.80;2.60;;;;;;;19.73;43.05;95799.38;5098202;28;20203;-72
2022/10/07 11:06:51;;;;;;;3.28;2.95;;;;;;;19.78;41.36;95801.00;5097937;28;20231;-72
2022/10/07 11:09:23;;;;;;;4.90;2.35;;;;;;;19.75;42.43;95793.38;5098344;28;20196;-72
2022/10/07 11:11:50;;;;;;;4.10;2.50;;;;;;;19.70;40.23;95786.97;5098125;28;20208;-72
2022/10/07 11:14:21;;;;;;;2.90;2.25;;;;;;;19.67;41.20;95796.16;5098323;28;20176;-72
2022/10/07 11:16:50;;;;;;;6.70;2.40;;;;;;;19.73;43.13;95788.19;5097785;28;20180;-72
2022/10/07 11:19:21;;;;;;;2.72;2.30;;;;;;;19.76;41.61;95787.41;5097352;28;20197;-72
2022/10/07 11:21:50;;;;;;;3.13;2.50;;;;;;;19.74;41.97;95781.38;5098183;28;20185;-73
2022/10/07 11:24:20;;;;;;;3.95;2.30;;;;;;;19.80;42.72;95779.03;5097073;28;20651;-72
2022/10/07 11:26:50;;;;;;;3.50;2.13;;;;;;;19.85;40.71;95775.81;5096997;28;20211;-72
2022/10/07 11:29:23;;;;;;;2.28;2.05;;;;;;;19.83;41.63;95773.44;5097200;28;20532;-72
2022/10/07 11:31:54;;;;;;;2.10;2.00;;;;;;;19.69;39.82;95779.78;5098052;28;20644;-72
2022/10/07 11:34:23;;;;;;;3.38;2.10;;;;;;;19.63;40.39;95767.34;5096822;28;20608;-72
2022/10/07 11:36:57;;;;;;;2.53;2.00;;;;;;;19.63;41.32;95766.56;5096480;28;20242;-74
2022/10/07 11:39:24;;;;;;;2.55;2.00;;;;;;;19.63;39.93;95767.34;5097371;28;20184;-72
2022/10/07 11:41:55;;;;;;;2.22;1.85;;;;;;;19.58;40.10;95767.72;5097644;28;20192;-71
2022/10/07 11:44:26;;;;;;;2.05;1.92;;;;;;;19.59;41.73;95758.13;5097682;28;20184;-72
2022/10/07 11:46:54;;;;;;;3.38;2.10;;;;;;;19.62;41.21;95759.34;5097486;28;20185;-71
2022/10/07 11:49:26;;;;;;;3.53;2.05;;;;;;;19.62;41.57;95756.53;5096319;28;20201;-71
2022/10/07 11:51:57;;;;;;;3.60;2.45;;;;;;;19.65;40.79;95753.78;5096673;28;20222;-71
2022/10/07 11:54:27;;;;;;;2.25;2.05;;;;;;;19.62;40.87;95748.97;5097150;28;20189;-71